sensor_id;sensor_type;location;lat;lon;timestamp;pressure;altitude;pressure_sealevel;temperature;humidity
15382;BME280;7789;51.364;12.358;2024-02-26T00:01:38;99043.75;;;6.18;87.12
15382;BME280;7789;51.364;12.358;2024-02-26T00:06:42;99040.72;;;6.13;87.57
15382;BME280;7789;51.364;12.358;2024-02-26T00:11:46;99045.19;;;6.11;88.23
15382;BME280;7789;51.364;12.358;2024-02-26T00:16:51;99035.09;;;6.08;88.81
15382;BME280;7789;51.364;12.358;2024-02-26T00:21:55;99025.25;;;6.02;89.13
15382;BME280;7789;51.364;12.358;2024-02-26T00:26:59;99020.31;;;5.99;89.83
15382;BME280;7789;51.364;12.358;2024-02-26T00:32:05;99025.50;;;5.99;90.58
15382;BME280;7789;51.364;12.358;2024-02-26T00:37:08;99009.38;;;5.96;91.78
15382;BME280;7789;51.364;12.358;2024-02-26T00:42:12;99003.50;;;5.94;92.15
15382;BME280;7789;51.364;12.358;2024-02-26T00:47:16;99006.09;;;5.94;92.69
15382;BME280;7789;51.364;12.358;2024-02-26T00:52:20;98999.28;;;5.93;92.67
15382;BME280;7789;51.364;12.358;2024-02-26T00:57:24;98988.63;;;5.96;94.19
15382;BME280;7789;51.364;12.358;2024-02-26T01:02:30;98997.25;;;5.96;93.84
15382;BME280;7789;51.364;12.358;2024-02-26T01:07:36;98993.56;;;5.99;94.83
15382;BME280;7789;51.364;12.358;2024-02-26T01:12:42;98988.38;;;5.99;95.84
15382;BME280;7789;51.364;12.358;2024-02-26T01:17:49;98989.31;;;5.98;95.83
15382;BME280;7789;51.364;12.358;2024-02-26T01:22:52;98983.06;;;6.00;95.78
15382;BME280;7789;51.364;12.358;2024-02-26T01:27:55;98989.19;;;5.99;96.04
15382;BME280;7789;51.364;12.358;2024-02-26T01:33:00;98978.69;;;6.01;95.95
15382;BME280;7789;51.364;12.358;2024-02-26T01:38:04;98960.53;;;6.01;96.14
15382;BME280;7789;51.364;12.358;2024-02-26T01:43:08;98962.44;;;5.99;96.10
15382;BME280;7789;51.364;12.358;2024-02-26T01:48:13;98947.56;;;6.01;96.41
15382;BME280;7789;51.364;12.358;2024-02-26T01:53:18;98951.09;;;6.00;95.96
15382;BME280;7789;51.364;12.358;2024-02-26T01:58:23;98940.88;;;5.98;96.49
15382;BME280;7789;51.364;12.358;2024-02-26T02:03:28;98942.22;;;5.93;96.54
15382;BME280;7789;51.364;12.358;2024-02-26T02:08:32;98937.53;;;5.87;97.41
15382;BME280;7789;51.364;12.358;2024-02-26T02:13:37;98940.28;;;5.85;97.35
15382;BME280;7789;51.364;12.358;2024-02-26T02:18:44;98936.31;;;5.81;97.33
15382;BME280;7789;51.364;12.358;2024-02-26T02:23:50;98928.78;;;5.78;97.62
15382;BME280;7789;51.364;12.358;2024-02-26T02:28:54;98942.81;;;5.76;97.76
15382;BME280;7789;51.364;12.358;2024-02-26T02:33:58;98940.50;;;5.73;97.41
15382;BME280;7789;51.364;12.358;2024-02-26T02:39:03;98938.84;;;5.72;97.81
15382;BME280;7789;51.364;12.358;2024-02-26T02:44:06;98938.84;;;5.72;98.00
15382;BME280;7789;51.364;12.358;2024-02-26T02:49:10;98957.50;;;5.66;97.80
15382;BME280;7789;51.364;12.358;2024-02-26T02:54:15;98958.19;;;5.68;98.36
15382;BME280;7789;51.364;12.358;2024-02-26T02:59:18;98951.50;;;5.65;98.04
15382;BME280;7789;51.364;12.358;2024-02-26T03:04:22;98971.28;;;5.66;98.20
15382;BME280;7789;51.364;12.358;2024-02-26T03:09:27;98976.84;;;5.62;98.68
15382;BME280;7789;51.364;12.358;2024-02-26T03:14:30;98994.31;;;5.60;98.48
15382;BME280;7789;51.364;12.358;2024-02-26T03:19:34;98980.78;;;5.56;98.84
15382;BME280;7789;51.364;12.358;2024-02-26T03:24:39;98984.47;;;5.54;98.66
15382;BME280;7789;51.364;12.358;2024-02-26T03:29:42;98989.56;;;5.44;99.17
15382;BME280;7789;51.364;12.358;2024-02-26T03:34:46;98991.03;;;5.38;99.74
15382;BME280;7789;51.364;12.358;2024-02-26T03:39:51;98988.13;;;5.31;100.00
15382;BME280;7789;51.364;12.358;2024-02-26T03:44:54;98993.94;;;5.24;100.00
15382;BME280;7789;51.364;12.358;2024-02-26T03:49:58;98993.06;;;5.14;100.00
15382;BME280;7789;51.364;12.358;2024-02-26T03:55:04;99000.34;;;5.09;100.00
15382;BME280;7789;51.364;12.358;2024-02-26T04:00:08;98993.00;;;5.04;100.00
15382;BME280;7789;51.364;12.358;2024-02-26T04:05:13;99003.00;;;4.98;100.00
15382;BME280;7789;51.364;12.358;2024-02-26T04:10:18;98999.59;;;4.97;100.00
15382;BME280;7789;51.364;12.358;2024-02-26T04:15:21;99002.69;;;4.91;100.00
15382;BME280;7789;51.364;12.358;2024-02-26T04:20:26;99003.06;;;4.87;100.00
15382;BME280;7789;51.364;12.358;2024-02-26T04:25:33;99005.19;;;4.82;100.00
15382;BME280;7789;51.364;12.358;2024-02-26T04:30:37;98996.03;;;4.78;100.00
15382;BME280;7789;51.364;12.358;2024-02-26T04:35:40;98988.97;;;4.80;100.00
15382;BME280;7789;51.364;12.358;2024-02-26T04:40:45;98990.72;;;4.79;100.00
15382;BME280;7789;51.364;12.358;2024-02-26T04:45:49;98993.19;;;4.81;100.00
15382;BME280;7789;51.364;12.358;2024-02-26T04:50:52;98992.63;;;4.77;100.00
15382;BME280;7789;51.364;12.358;2024-02-26T04:55:58;98988.38;;;4.76;100.00
15382;BME280;7789;51.364;12.358;2024-02-26T05:01:02;99002.59;;;4.82;100.00
15382;BME280;7789;51.364;12.358;2024-02-26T05:06:07;98997.28;;;4.83;100.00
15382;BME280;7789;51.364;12.358;2024-02-26T05:11:13;99006.84;;;4.83;100.00
15382;BME280;7789;51.364;12.358;2024-02-26T05:16:17;99011.56;;;4.78;100.00
15382;BME280;7789;51.364;12.358;2024-02-26T05:21:22;99016.75;;;4.78;100.00
15382;BME280;7789;51.364;12.358;2024-02-26T05:26:28;99014.03;;;4.79;100.00
15382;BME280;7789;51.364;12.358;2024-02-26T05:31:31;99019.09;;;4.81;100.00
15382;BME280;7789;51.364;12.358;2024-02-26T05:36:35;99016.13;;;4.85;100.00
15382;BME280;7789;51.364;12.358;2024-02-26T05:41:44;99017.78;;;4.86;100.00
15382;BME280;7789;51.364;12.358;2024-02-26T05:46:47;99014.47;;;4.84;100.00
15382;BME280;7789;51.364;12.358;2024-02-26T05:51:50;99011.06;;;4.84;100.00
15382;BME280;7789;51.364;12.358;2024-02-26T05:56:55;99010.22;;;4.83;100.00
15382;BME280;7789;51.364;12.358;2024-02-26T06:02:00;99010.22;;;4.83;100.00
15382;BME280;7789;51.364;12.358;2024-02-26T06:07:05;99004.50;;;4.80;100.00
15382;BME280;7789;51.364;12.358;2024-02-26T06:12:13;99015.91;;;4.77;100.00
15382;BME280;7789;51.364;12.358;2024-02-26T06:17:17;99016.59;;;4.79;100.00
15382;BME280;7789;51.364;12.358;2024-02-26T06:22:20;99019.88;;;4.81;100.00
15382;BME280;7789;51.364;12.358;2024-02-26T06:27:28;99014.97;;;4.78;100.00
15382;BME280;7789;51.364;12.358;2024-02-26T06:32:32;99021.94;;;4.78;100.00
15382;BME280;7789;51.364;12.358;2024-02-26T06:37:42;99029.06;;;4.85;100.00
15382;BME280;7789;51.364;12.358;2024-02-26T06:42:49;99040.22;;;4.97;100.00
15382;BME280;7789;51.364;12.358;2024-02-26T06:47:56;99046.16;;;5.08;100.00
15382;BME280;7789;51.364;12.358;2024-02-26T06:52:59;99051.06;;;5.22;100.00
15382;BME280;7789;51.364;12.358;2024-02-26T06:58:06;99049.09;;;5.35;100.00
15382;BME280;7789;51.364;12.358;2024-02-26T07:03:09;99062.69;;;5.48;100.00
15382;BME280;7789;51.364;12.358;2024-02-26T07:08:17;99059.91;;;5.60;100.00
15382;BME280;7789;51.364;12.358;2024-02-26T07:13:22;99054.97;;;5.78;100.00
15382;BME280;7789;51.364;12.358;2024-02-26T07:18:32;99056.16;;;5.94;100.00
15382;BME280;7789;51.364;12.358;2024-02-26T07:23:35;99055.47;;;6.13;100.00
15382;BME280;7789;51.364;12.358;2024-02-26T07:28:42;99053.59;;;6.73;100.00
15382;BME280;7789;51.364;12.358;2024-02-26T07:33:46;99053.91;;;7.36;100.00
15382;BME280;7789;51.364;12.358;2024-02-26T07:38:49;99054.22;;;7.98;100.00
15382;BME280;7789;51.364;12.358;2024-02-26T07:43:57;99057.59;;;8.27;100.00
15382;BME280;7789;51.364;12.358;2024-02-26T07:49:01;99056.66;;;8.46;100.00
15382;BME280;7789;51.364;12.358;2024-02-26T07:54:05;99051.50;;;8.63;100.00
15382;BME280;7789;51.364;12.358;2024-02-26T07:59:10;99053.19;;;9.16;99.80
15382;BME280;7789;51.364;12.358;2024-02-26T08:04:13;99068.38;;;9.56;96.33
15382;BME280;7789;51.364;12.358;2024-02-26T08:09:16;99071.50;;;10.02;94.56
15382;BME280;7789;51.364;12.358;2024-02-26T08:14:21;99075.75;;;10.03;92.23
15382;BME280;7789;51.364;12.358;2024-02-26T08:19:25;99073.94;;;9.78;92.47
15382;BME280;7789;51.364;12.358;2024-02-26T08:24:28;99065.09;;;9.97;91.95
15382;BME280;7789;51.364;12.358;2024-02-26T08:29:33;99069.47;;;10.14;91.02
15382;BME280;7789;51.364;12.358;2024-02-26T08:34:36;99077.47;;;10.46;90.07
15382;BME280;7789;51.364;12.358;2024-02-26T08:39:40;99078.44;;;10.78;88.70
15382;BME280;7789;51.364;12.358;2024-02-26T08:44:45;99090.13;;;10.66;88.21
15382;BME280;7789;51.364;12.358;2024-02-26T08:49:48;99085.75;;;10.67;87.94
15382;BME280;7789;51.364;12.358;2024-02-26T08:54:52;99094.31;;;10.85;87.41
15382;BME280;7789;51.364;12.358;2024-02-26T08:59:56;99091.38;;;10.96;86.41
15382;BME280;7789;51.364;12.358;2024-02-26T09:05:00;99089.44;;;11.05;85.40
15382;BME280;7789;51.364;12.358;2024-02-26T09:10:04;99079.69;;;11.31;85.13
15382;BME280;7789;51.364;12.358;2024-02-26T09:15:12;99080.69;;;11.46;83.67
15382;BME280;7789;51.364;12.358;2024-02-26T09:20:15;99080.41;;;11.57;82.81
15382;BME280;7789;51.364;12.358;2024-02-26T09:25:21;99065.66;;;11.80;82.94
15382;BME280;7789;51.364;12.358;2024-02-26T09:30:26;99069.75;;;11.99;82.29
15382;BME280;7789;51.364;12.358;2024-02-26T09:35:29;99070.00;;;12.28;81.77
15382;BME280;7789;51.364;12.358;2024-02-26T09:40:33;99080.13;;;12.39;81.68
15382;BME280;7789;51.364;12.358;2024-02-26T09:45:38;99067.66;;;12.41;79.41
15382;BME280;7789;51.364;12.358;2024-02-26T09:50:42;99075.22;;;12.44;79.31
15382;BME280;7789;51.364;12.358;2024-02-26T09:55:46;99075.25;;;12.66;78.02
15382;BME280;7789;51.364;12.358;2024-02-26T10:00:54;99082.59;;;12.79;77.16
15382;BME280;7789;51.364;12.358;2024-02-26T10:06:00;99086.28;;;13.00;76.50
15382;BME280;7789;51.364;12.358;2024-02-26T10:11:07;99082.06;;;12.91;75.10
15382;BME280;7789;51.364;12.358;2024-02-26T10:16:11;99084.13;;;13.03;74.40
15382;BME280;7789;51.364;12.358;2024-02-26T10:21:16;99096.53;;;13.17;73.80
15382;BME280;7789;51.364;12.358;2024-02-26T10:26:21;99085.06;;;13.10;73.05
15382;BME280;7789;51.364;12.358;2024-02-26T10:31:33;99088.91;;;13.30;72.25
15382;BME280;7789;51.364;12.358;2024-02-26T10:36:36;99090.19;;;13.34;71.61
15382;BME280;7789;51.364;12.358;2024-02-26T10:41:54;99097.31;;;13.26;71.17
15382;BME280;7789;51.364;12.358;2024-02-26T10:46:59;99095.47;;;13.26;71.53
15382;BME280;7789;51.364;12.358;2024-02-26T10:52:05;99094.03;;;13.24;70.72
15382;BME280;7789;51.364;12.358;2024-02-26T10:57:10;99098.41;;;13.31;71.13
15382;BME280;7789;51.364;12.358;2024-02-26T11:02:15;99093.31;;;13.30;71.01
15382;BME280;7789;51.364;12.358;2024-02-26T11:07:22;99103.09;;;13.44;71.61
15382;BME280;7789;51.364;12.358;2024-02-26T11:12:28;99106.94;;;13.56;71.50
15382;BME280;7789;51.364;12.358;2024-02-26T11:17:33;99101.97;;;13.61;70.84
15382;BME280;7789;51.364;12.358;2024-02-26T11:22:38;99109.91;;;13.53;70.05
15382;BME280;7789;51.364;12.358;2024-02-26T11:27:44;99103.50;;;13.55;69.47
15382;BME280;7789;51.364;12.358;2024-02-26T11:32:51;99094.63;;;13.56;69.66
15382;BME280;7789;51.364;12.358;2024-02-26T11:38:00;99080.63;;;13.64;70.88
15382;BME280;7789;51.364;12.358;2024-02-26T11:43:04;99080.00;;;13.76;71.03
15382;BME280;7789;51.364;12.358;2024-02-26T11:48:12;99088.88;;;13.75;71.32
15382;BME280;7789;51.364;12.358;2024-02-26T11:53:23;99080.72;;;13.70;71.25
15382;BME280;7789;51.364;12.358;2024-02-26T11:58:31;99079.09;;;13.69;72.24
15382;BME280;7789;51.364;12.358;2024-02-26T12:03:36;99085.91;;;13.78;71.90
15382;BME280;7789;51.364;12.358;2024-02-26T12:08:44;99077.69;;;13.81;72.23
15382;BME280;7789;51.364;12.358;2024-02-26T12:13:51;99090.06;;;13.73;71.95
15382;BME280;7789;51.364;12.358;2024-02-26T12:18:56;99092.41;;;13.68;71.87
15382;BME280;7789;51.364;12.358;2024-02-26T12:24:09;99092.06;;;13.71;71.42
15382;BME280;7789;51.364;12.358;2024-02-26T12:29:13;99094.63;;;13.56;72.11
15382;BME280;7789;51.364;12.358;2024-02-26T12:34:17;99085.88;;;13.64;72.14
15382;BME280;7789;51.364;12.358;2024-02-26T12:39:22;99104.25;;;13.64;71.93
15382;BME280;7789;51.364;12.358;2024-02-26T12:44:26;99094.75;;;13.63;71.94
15382;BME280;7789;51.364;12.358;2024-02-26T12:49:31;99116.34;;;13.73;71.49
15382;BME280;7789;51.364;12.358;2024-02-26T12:54:35;99114.59;;;13.65;71.71
15382;BME280;7789;51.364;12.358;2024-02-26T12:59:41;99110.13;;;13.66;71.67
15382;BME280;7789;51.364;12.358;2024-02-26T13:04:46;99122.69;;;13.78;70.98
15382;BME280;7789;51.364;12.358;2024-02-26T13:09:49;99124.03;;;13.74;71.21
15382;BME280;7789;51.364;12.358;2024-02-26T13:15:00;99129.03;;;13.84;70.78
15382;BME280;7789;51.364;12.358;2024-02-26T13:20:08;99143.25;;;13.75;70.94
15382;BME280;7789;51.364;12.358;2024-02-26T13:25:12;99157.19;;;13.75;70.67
15382;BME280;7789;51.364;12.358;2024-02-26T13:30:15;99142.66;;;13.65;70.91
15382;BME280;7789;51.364;12.358;2024-02-26T13:35:22;99150.00;;;13.69;71.04
15382;BME280;7789;51.364;12.358;2024-02-26T13:40:25;99156.41;;;13.67;71.24
15382;BME280;7789;51.364;12.358;2024-02-26T13:45:30;99166.56;;;13.70;71.23
15382;BME280;7789;51.364;12.358;2024-02-26T13:50:36;99180.03;;;13.75;70.90
15382;BME280;7789;51.364;12.358;2024-02-26T13:55:40;99180.94;;;13.82;70.51
15382;BME280;7789;51.364;12.358;2024-02-26T14:00:46;99190.34;;;13.76;69.88
15382;BME280;7789;51.364;12.358;2024-02-26T14:05:51;99195.59;;;13.76;68.97
15382;BME280;7789;51.364;12.358;2024-02-26T14:10:55;99193.38;;;13.65;69.06
15382;BME280;7789;51.364;12.358;2024-02-26T14:15:58;99204.53;;;13.67;68.75
15382;BME280;7789;51.364;12.358;2024-02-26T14:21:04;99224.41;;;13.62;68.65
15382;BME280;7789;51.364;12.358;2024-02-26T14:26:07;99233.13;;;13.62;69.48
15382;BME280;7789;51.364;12.358;2024-02-26T14:31:17;99233.41;;;13.67;69.07
15382;BME280;7789;51.364;12.358;2024-02-26T14:36:23;99227.19;;;13.60;69.13
15382;BME280;7789;51.364;12.358;2024-02-26T14:41:27;99223.94;;;13.58;70.84
15382;BME280;7789;51.364;12.358;2024-02-26T14:46:30;99222.34;;;13.49;71.75
15382;BME280;7789;51.364;12.358;2024-02-26T14:51:42;99226.97;;;13.39;72.55
15382;BME280;7789;51.364;12.358;2024-02-26T14:56:46;99223.09;;;13.27;72.57
15382;BME280;7789;51.364;12.358;2024-02-26T15:01:51;99215.75;;;13.15;73.88
15382;BME280;7789;51.364;12.358;2024-02-26T15:06:56;99227.28;;;13.06;74.28
15382;BME280;7789;51.364;12.358;2024-02-26T15:12:00;99231.75;;;12.98;74.92
15382;BME280;7789;51.364;12.358;2024-02-26T15:17:05;99235.00;;;12.91;74.93
15382;BME280;7789;51.364;12.358;2024-02-26T15:22:14;99233.53;;;12.89;75.29
15382;BME280;7789;51.364;12.358;2024-02-26T15:27:17;99225.19;;;12.86;75.80
15382;BME280;7789;51.364;12.358;2024-02-26T15:32:21;99234.19;;;12.83;75.76
15382;BME280;7789;51.364;12.358;2024-02-26T15:37:27;99245.84;;;12.81;76.29
15382;BME280;7789;51.364;12.358;2024-02-26T15:42:31;99256.84;;;12.76;76.85
15382;BME280;7789;51.364;12.358;2024-02-26T15:47:40;99263.91;;;12.68;77.35
15382;BME280;7789;51.364;12.358;2024-02-26T15:52:46;99273.56;;;12.59;78.23
15382;BME280;7789;51.364;12.358;2024-02-26T15:57:52;99277.66;;;12.54;78.67
15382;BME280;7789;51.364;12.358;2024-02-26T16:03:01;99293.72;;;12.51;79.79
15382;BME280;7789;51.364;12.358;2024-02-26T16:08:10;99299.47;;;12.46;80.71
15382;BME280;7789;51.364;12.358;2024-02-26T16:13:15;99301.91;;;12.40;80.55
15382;BME280;7789;51.364;12.358;2024-02-26T16:18:22;99321.56;;;12.36;82.04
15382;BME280;7789;51.364;12.358;2024-02-26T16:23:27;99332.88;;;12.36;82.21
15382;BME280;7789;51.364;12.358;2024-02-26T16:28:31;99336.31;;;12.29;81.88
15382;BME280;7789;51.364;12.358;2024-02-26T16:33:35;99342.50;;;12.20;82.50
15382;BME280;7789;51.364;12.358;2024-02-26T16:38:40;99343.16;;;12.14;83.02
15382;BME280;7789;51.364;12.358;2024-02-26T16:43:44;99353.94;;;12.03;84.26
15382;BME280;7789;51.364;12.358;2024-02-26T16:48:49;99369.44;;;11.96;83.94
15382;BME280;7789;51.364;12.358;2024-02-26T16:53:57;99367.63;;;11.89;85.01
15382;BME280;7789;51.364;12.358;2024-02-26T16:59:01;99384.63;;;11.85;84.85
15382;BME280;7789;51.364;12.358;2024-02-26T17:04:06;99385.75;;;11.74;85.63
15382;BME280;7789;51.364;12.358;2024-02-26T17:09:11;99391.63;;;11.68;86.14
15382;BME280;7789;51.364;12.358;2024-02-26T17:14:20;99400.06;;;11.62;85.04
15382;BME280;7789;51.364;12.358;2024-02-26T17:19:24;99410.19;;;11.57;85.50
15382;BME280;7789;51.364;12.358;2024-02-26T17:24:29;99409.16;;;11.50;86.43
15382;BME280;7789;51.364;12.358;2024-02-26T17:29:34;99418.28;;;11.46;86.57
15382;BME280;7789;51.364;12.358;2024-02-26T17:34:42;99433.47;;;11.43;86.81
15382;BME280;7789;51.364;12.358;2024-02-26T17:39:51;99437.88;;;11.42;86.89
15382;BME280;7789;51.364;12.358;2024-02-26T17:44:55;99434.59;;;11.40;86.75
15382;BME280;7789;51.364;12.358;2024-02-26T17:49:59;99443.56;;;11.38;86.50
15382;BME280;7789;51.364;12.358;2024-02-26T17:55:06;99446.50;;;11.35;87.71
15382;BME280;7789;51.364;12.358;2024-02-26T18:00:12;99445.03;;;11.32;87.49
15382;BME280;7789;51.364;12.358;2024-02-26T18:05:19;99449.06;;;11.27;88.10
15382;BME280;7789;51.364;12.358;2024-02-26T18:10:30;99466.50;;;11.18;88.47
15382;BME280;7789;51.364;12.358;2024-02-26T18:15:33;99468.72;;;11.13;88.03
15382;BME280;7789;51.364;12.358;2024-02-26T18:20:37;99489.94;;;11.10;88.67
15382;BME280;7789;51.364;12.358;2024-02-26T18:25:45;99482.72;;;11.04;88.52
15382;BME280;7789;51.364;12.358;2024-02-26T18:30:49;99480.72;;;10.99;89.25
15382;BME280;7789;51.364;12.358;2024-02-26T18:35:53;99489.44;;;10.90;87.94
15382;BME280;7789;51.364;12.358;2024-02-26T18:40:58;99499.53;;;10.85;88.38
15382;BME280;7789;51.364;12.358;2024-02-26T18:46:02;99504.81;;;10.75;89.36
15382;BME280;7789;51.364;12.358;2024-02-26T18:51:06;99513.78;;;10.73;88.81
15382;BME280;7789;51.364;12.358;2024-02-26T18:56:17;99514.88;;;10.70;89.27
15382;BME280;7789;51.364;12.358;2024-02-26T19:01:23;99524.16;;;10.65;88.84
15382;BME280;7789;51.364;12.358;2024-02-26T19:06:26;99539.97;;;10.63;88.62
15382;BME280;7789;51.364;12.358;2024-02-26T19:11:33;99544.34;;;10.63;88.86
15382;BME280;7789;51.364;12.358;2024-02-26T19:16:38;99538.91;;;10.56;89.61
15382;BME280;7789;51.364;12.358;2024-02-26T19:21:44;99547.47;;;10.49;89.82
15382;BME280;7789;51.364;12.358;2024-02-26T19:26:49;99548.03;;;10.43;90.12
15382;BME280;7789;51.364;12.358;2024-02-26T19:31:56;99560.19;;;10.34;90.20
15382;BME280;7789;51.364;12.358;2024-02-26T19:36:59;99560.19;;;10.34;89.80
15382;BME280;7789;51.364;12.358;2024-02-26T19:42:06;99563.75;;;10.33;90.78
15382;BME280;7789;51.364;12.358;2024-02-26T19:47:11;99561.56;;;10.29;90.75
15382;BME280;7789;51.364;12.358;2024-02-26T19:52:16;99573.44;;;10.23;91.21
15382;BME280;7789;51.364;12.358;2024-02-26T19:57:34;99572.88;;;10.20;91.70
15382;BME280;7789;51.364;12.358;2024-02-26T20:02:38;99590.34;;;10.19;91.96
15382;BME280;7789;51.364;12.358;2024-02-26T20:07:42;99592.72;;;10.13;92.55
15382;BME280;7789;51.364;12.358;2024-02-26T20:12:48;99604.94;;;10.12;93.81
15382;BME280;7789;51.364;12.358;2024-02-26T20:17:51;99612.38;;;10.07;93.38
15382;BME280;7789;51.364;12.358;2024-02-26T20:22:55;99611.25;;;10.00;94.52
15382;BME280;7789;51.364;12.358;2024-02-26T20:28:01;99616.34;;;9.92;94.68
15382;BME280;7789;51.364;12.358;2024-02-26T20:33:04;99627.59;;;9.93;95.12
15382;BME280;7789;51.364;12.358;2024-02-26T20:38:08;99638.91;;;9.84;96.06
15382;BME280;7789;51.364;12.358;2024-02-26T20:43:15;99641.91;;;9.79;96.91
15382;BME280;7789;51.364;12.358;2024-02-26T20:48:21;99655.66;;;9.72;97.62
15382;BME280;7789;51.364;12.358;2024-02-26T20:53:25;99652.06;;;9.63;98.10
15382;BME280;7789;51.364;12.358;2024-02-26T20:58:30;99660.75;;;9.54;98.73
15382;BME280;7789;51.364;12.358;2024-02-26T21:03:37;99666.63;;;9.47;99.34
15382;BME280;7789;51.364;12.358;2024-02-26T21:08:41;99667.31;;;9.39;99.67
15382;BME280;7789;51.364;12.358;2024-02-26T21:13:45;99664.13;;;9.36;100.00
15382;BME280;7789;51.364;12.358;2024-02-26T21:18:49;99663.72;;;9.31;100.00
15382;BME280;7789;51.364;12.358;2024-02-26T21:23:52;99681.31;;;9.29;100.00
15382;BME280;7789;51.364;12.358;2024-02-26T21:28:57;99686.06;;;9.24;100.00
15382;BME280;7789;51.364;12.358;2024-02-26T21:34:01;99687.31;;;9.20;100.00
15382;BME280;7789;51.364;12.358;2024-02-26T21:39:05;99694.44;;;9.18;100.00
15382;BME280;7789;51.364;12.358;2024-02-26T21:44:14;99694.13;;;9.12;100.00
15382;BME280;7789;51.364;12.358;2024-02-26T21:49:17;99701.28;;;9.10;100.00
15382;BME280;7789;51.364;12.358;2024-02-26T21:54:23;99715.38;;;9.07;100.00
15382;BME280;7789;51.364;12.358;2024-02-26T21:59:30;99723.22;;;9.07;100.00
15382;BME280;7789;51.364;12.358;2024-02-26T22:04:38;99734.47;;;9.08;100.00
15382;BME280;7789;51.364;12.358;2024-02-26T22:09:42;99745.03;;;9.06;100.00
15382;BME280;7789;51.364;12.358;2024-02-26T22:14:47;99740.25;;;9.11;100.00
15382;BME280;7789;51.364;12.358;2024-02-26T22:19:50;99751.50;;;9.12;100.00
15382;BME280;7789;51.364;12.358;2024-02-26T22:24:54;99749.59;;;9.13;100.00
15382;BME280;7789;51.364;12.358;2024-02-26T22:29:59;99753.72;;;9.16;100.00
15382;BME280;7789;51.364;12.358;2024-02-26T22:35:04;99759.06;;;9.14;100.00
15382;BME280;7789;51.364;12.358;2024-02-26T22:40:08;99763.19;;;9.17;100.00
15382;BME280;7789;51.364;12.358;2024-02-26T22:45:13;99766.06;;;9.14;100.00
15382;BME280;7789;51.364;12.358;2024-02-26T22:50:17;99775.81;;;9.12;100.00
15382;BME280;7789;51.364;12.358;2024-02-26T22:55:21;99780.44;;;9.09;100.00
15382;BME280;7789;51.364;12.358;2024-02-26T23:00:31;99778.78;;;9.08;100.00
15382;BME280;7789;51.364;12.358;2024-02-26T23:05:38;99778.09;;;9.06;100.00
15382;BME280;7789;51.364;12.358;2024-02-26T23:10:41;99776.69;;;9.02;100.00
15382;BME280;7789;51.364;12.358;2024-02-26T23:15:46;99788.34;;;8.98;100.00
15382;BME280;7789;51.364;12.358;2024-02-26T23:20:51;99790.41;;;8.94;100.00
15382;BME280;7789;51.364;12.358;2024-02-26T23:25:54;99791.22;;;8.95;100.00
15382;BME280;7789;51.364;12.358;2024-02-26T23:30:59;99795.63;;;8.94;100.00
15382;BME280;7789;51.364;12.358;2024-02-26T23:36:03;99801.75;;;8.93;100.00
15382;BME280;7789;51.364;12.358;2024-02-26T23:41:09;99804.50;;;8.92;100.00
15382;BME280;7789;51.364;12.358;2024-02-26T23:46:14;99802.97;;;8.89;100.00
15382;BME280;7789;51.364;12.358;2024-02-26T23:51:18;99810.94;;;8.88;100.00
15382;BME280;7789;51.364;12.358;2024-02-26T23:56:23;99810.34;;;8.84;100.00
